sensor_id;sensor_type;location;lat;lon;timestamp;P1;durP1;ratioP1;P2;durP2;ratioP2
77409;SDS011;66481;51.332;22.804;2023-02-18T00:01:39;12.30;;;7.18;;
77409;SDS011;66481;51.332;22.804;2023-02-18T00:05:40;8.15;;;6.15;;
77409;SDS011;66481;51.332;22.804;2023-02-18T00:09:42;9.60;;;6.22;;
77409;SDS011;66481;51.332;22.804;2023-02-18T00:13:43;7.05;;;5.32;;
77409;SDS011;66481;51.332;22.804;2023-02-18T00:17:49;4.63;;;3.45;;
77409;SDS011;66481;51.332;22.804;2023-02-18T00:21:50;4.75;;;2.30;;
77409;SDS011;66481;51.332;22.804;2023-02-18T00:25:58;2.85;;;1.98;;
77409;SDS011;66481;51.332;22.804;2023-02-18T00:30:00;3.63;;;1.80;;
77409;SDS011;66481;51.332;22.804;2023-02-18T00:34:03;2.17;;;1.73;;
77409;SDS011;66481;51.332;22.804;2023-02-18T00:38:05;1.98;;;1.30;;
77409;SDS011;66481;51.332;22.804;2023-02-18T00:42:05;3.10;;;1.48;;
77409;SDS011;66481;51.332;22.804;2023-02-18T00:46:06;1.92;;;0.95;;
77409;SDS011;66481;51.332;22.804;2023-02-18T00:50:08;1.95;;;1.08;;
77409;SDS011;66481;51.332;22.804;2023-02-18T00:54:10;5.07;;;1.27;;
77409;SDS011;66481;51.332;22.804;2023-02-18T00:58:11;3.50;;;1.27;;
77409;SDS011;66481;51.332;22.804;2023-02-18T01:02:12;1.88;;;1.30;;
77409;SDS011;66481;51.332;22.804;2023-02-18T01:06:13;1.80;;;1.00;;
77409;SDS011;66481;51.332;22.804;2023-02-18T01:10:14;1.45;;;0.90;;
77409;SDS011;66481;51.332;22.804;2023-02-18T01:14:15;1.95;;;1.30;;
77409;SDS011;66481;51.332;22.804;2023-02-18T01:18:17;3.03;;;2.00;;
77409;SDS011;66481;51.332;22.804;2023-02-18T01:22:19;1.85;;;1.00;;
77409;SDS011;66481;51.332;22.804;2023-02-18T01:26:20;3.92;;;1.75;;
77409;SDS011;66481;51.332;22.804;2023-02-18T01:30:21;1.75;;;1.50;;
77409;SDS011;66481;51.332;22.804;2023-02-18T01:34:22;2.83;;;1.20;;
77409;SDS011;66481;51.332;22.804;2023-02-18T01:38:23;6.47;;;1.40;;
77409;SDS011;66481;51.332;22.804;2023-02-18T01:42:25;5.07;;;1.23;;
77409;SDS011;66481;51.332;22.804;2023-02-18T01:46:27;2.15;;;1.33;;
77409;SDS011;66481;51.332;22.804;2023-02-18T01:50:28;5.60;;;1.05;;
77409;SDS011;66481;51.332;22.804;2023-02-18T01:54:32;2.00;;;0.98;;
77409;SDS011;66481;51.332;22.804;2023-02-18T01:58:35;3.85;;;1.10;;
77409;SDS011;66481;51.332;22.804;2023-02-18T02:02:38;3.35;;;1.27;;
77409;SDS011;66481;51.332;22.804;2023-02-18T02:06:42;2.80;;;1.15;;
77409;SDS011;66481;51.332;22.804;2023-02-18T02:10:59;2.28;;;1.02;;
77409;SDS011;66481;51.332;22.804;2023-02-18T02:15:16;2.70;;;1.38;;
77409;SDS011;66481;51.332;22.804;2023-02-18T02:24:23;2.38;;;1.02;;
77409;SDS011;66481;51.332;22.804;2023-02-18T02:41:51;5.47;;;1.10;;
77409;SDS011;66481;51.332;22.804;2023-02-18T02:46:34;3.67;;;1.30;;
77409;SDS011;66481;51.332;22.804;2023-02-18T02:54:46;5.75;;;2.53;;
77409;SDS011;66481;51.332;22.804;2023-02-18T02:58:58;7.75;;;3.25;;
77409;SDS011;66481;51.332;22.804;2023-02-18T03:20:40;4.78;;;2.03;;
77409;SDS011;66481;51.332;22.804;2023-02-18T03:24:47;2.88;;;1.10;;
77409;SDS011;66481;51.332;22.804;2023-02-18T03:28:52;3.00;;;1.25;;
77409;SDS011;66481;51.332;22.804;2023-02-18T03:32:57;2.88;;;1.58;;
77409;SDS011;66481;51.332;22.804;2023-02-18T03:37:01;2.13;;;1.52;;
77409;SDS011;66481;51.332;22.804;2023-02-18T03:41:03;3.50;;;1.40;;
77409;SDS011;66481;51.332;22.804;2023-02-18T03:45:05;2.70;;;1.23;;
77409;SDS011;66481;51.332;22.804;2023-02-18T03:49:07;4.28;;;1.50;;
77409;SDS011;66481;51.332;22.804;2023-02-18T03:53:11;4.60;;;1.08;;
77409;SDS011;66481;51.332;22.804;2023-02-18T03:57:15;3.75;;;1.70;;
77409;SDS011;66481;51.332;22.804;2023-02-18T04:01:16;4.22;;;1.48;;
77409;SDS011;66481;51.332;22.804;2023-02-18T04:05:17;4.15;;;1.50;;
77409;SDS011;66481;51.332;22.804;2023-02-18T04:09:19;7.45;;;2.15;;
77409;SDS011;66481;51.332;22.804;2023-02-18T04:13:20;7.75;;;2.17;;
77409;SDS011;66481;51.332;22.804;2023-02-18T04:17:21;4.63;;;1.35;;
77409;SDS011;66481;51.332;22.804;2023-02-18T04:21:22;7.45;;;2.13;;
77409;SDS011;66481;51.332;22.804;2023-02-18T04:25:23;8.43;;;2.17;;
77409;SDS011;66481;51.332;22.804;2023-02-18T04:29:24;4.15;;;1.23;;
77409;SDS011;66481;51.332;22.804;2023-02-18T04:33:25;4.25;;;1.52;;
77409;SDS011;66481;51.332;22.804;2023-02-18T04:37:26;5.80;;;1.58;;
77409;SDS011;66481;51.332;22.804;2023-02-18T04:41:27;6.00;;;1.50;;
77409;SDS011;66481;51.332;22.804;2023-02-18T04:45:29;6.22;;;1.73;;
77409;SDS011;66481;51.332;22.804;2023-02-18T04:49:31;4.28;;;1.92;;
77409;SDS011;66481;51.332;22.804;2023-02-18T04:53:35;5.13;;;1.70;;
77409;SDS011;66481;51.332;22.804;2023-02-18T04:57:36;4.00;;;1.55;;
77409;SDS011;66481;51.332;22.804;2023-02-18T05:01:37;5.00;;;1.52;;
77409;SDS011;66481;51.332;22.804;2023-02-18T05:05:38;4.07;;;1.02;;
77409;SDS011;66481;51.332;22.804;2023-02-18T05:09:41;4.50;;;1.80;;
77409;SDS011;66481;51.332;22.804;2023-02-18T05:13:42;5.88;;;1.45;;
77409;SDS011;66481;51.332;22.804;2023-02-18T05:17:43;4.22;;;1.50;;
77409;SDS011;66481;51.332;22.804;2023-02-18T05:21:44;6.13;;;1.55;;
77409;SDS011;66481;51.332;22.804;2023-02-18T05:25:45;3.40;;;0.85;;
77409;SDS011;66481;51.332;22.804;2023-02-18T05:29:47;5.63;;;2.03;;
77409;SDS011;66481;51.332;22.804;2023-02-18T05:33:48;4.85;;;1.50;;
77409;SDS011;66481;51.332;22.804;2023-02-18T05:37:49;4.55;;;1.52;;
77409;SDS011;66481;51.332;22.804;2023-02-18T05:41:50;5.30;;;1.20;;
77409;SDS011;66481;51.332;22.804;2023-02-18T05:45:51;5.97;;;1.73;;
77409;SDS011;66481;51.332;22.804;2023-02-18T05:49:52;4.90;;;1.23;;
77409;SDS011;66481;51.332;22.804;2023-02-18T05:53:55;8.32;;;1.90;;
77409;SDS011;66481;51.332;22.804;2023-02-18T05:57:59;1.58;;;1.25;;
77409;SDS011;66481;51.332;22.804;2023-02-18T06:06:01;8.32;;;1.67;;
77409;SDS011;66481;51.332;22.804;2023-02-18T06:10:03;5.15;;;1.55;;
77409;SDS011;66481;51.332;22.804;2023-02-18T06:14:05;4.38;;;1.55;;
77409;SDS011;66481;51.332;22.804;2023-02-18T06:18:07;6.55;;;1.80;;
77409;SDS011;66481;51.332;22.804;2023-02-18T06:22:08;7.20;;;1.73;;
77409;SDS011;66481;51.332;22.804;2023-02-18T06:26:10;3.63;;;1.35;;
77409;SDS011;66481;51.332;22.804;2023-02-18T06:30:11;4.82;;;1.85;;
77409;SDS011;66481;51.332;22.804;2023-02-18T06:34:13;6.82;;;2.38;;
77409;SDS011;66481;51.332;22.804;2023-02-18T06:38:15;2.67;;;1.83;;
77409;SDS011;66481;51.332;22.804;2023-02-18T06:42:16;8.88;;;1.75;;
77409;SDS011;66481;51.332;22.804;2023-02-18T06:46:18;2.40;;;1.60;;
77409;SDS011;66481;51.332;22.804;2023-02-18T06:50:20;2.88;;;1.55;;
77409;SDS011;66481;51.332;22.804;2023-02-18T06:58:26;1.83;;;1.13;;
77409;SDS011;66481;51.332;22.804;2023-02-18T07:02:27;3.72;;;1.48;;
77409;SDS011;66481;51.332;22.804;2023-02-18T07:06:29;3.97;;;1.70;;
77409;SDS011;66481;51.332;22.804;2023-02-18T07:10:31;4.63;;;1.95;;
77409;SDS011;66481;51.332;22.804;2023-02-18T07:14:35;7.15;;;1.98;;
77409;SDS011;66481;51.332;22.804;2023-02-18T07:18:36;6.03;;;1.55;;
77409;SDS011;66481;51.332;22.804;2023-02-18T07:22:37;5.85;;;2.17;;
77409;SDS011;66481;51.332;22.804;2023-02-18T07:26:39;5.22;;;1.75;;
77409;SDS011;66481;51.332;22.804;2023-02-18T07:30:41;2.95;;;1.33;;
77409;SDS011;66481;51.332;22.804;2023-02-18T07:34:42;4.68;;;1.83;;
77409;SDS011;66481;51.332;22.804;2023-02-18T07:38:43;6.07;;;1.73;;
77409;SDS011;66481;51.332;22.804;2023-02-18T07:42:44;4.25;;;1.50;;
77409;SDS011;66481;51.332;22.804;2023-02-18T07:46:46;3.95;;;1.90;;
77409;SDS011;66481;51.332;22.804;2023-02-18T07:50:47;7.18;;;2.28;;
77409;SDS011;66481;51.332;22.804;2023-02-18T07:54:49;4.63;;;1.65;;
77409;SDS011;66481;51.332;22.804;2023-02-18T08:03:24;5.38;;;2.00;;
77409;SDS011;66481;51.332;22.804;2023-02-18T08:07:28;7.85;;;2.45;;
77409;SDS011;66481;51.332;22.804;2023-02-18T08:11:31;4.32;;;2.38;;
77409;SDS011;66481;51.332;22.804;2023-02-18T08:15:33;5.63;;;2.60;;
77409;SDS011;66481;51.332;22.804;2023-02-18T08:19:35;4.22;;;1.50;;
77409;SDS011;66481;51.332;22.804;2023-02-18T08:23:37;4.35;;;2.08;;
77409;SDS011;66481;51.332;22.804;2023-02-18T08:27:39;6.35;;;2.05;;
77409;SDS011;66481;51.332;22.804;2023-02-18T08:31:40;5.22;;;2.35;;
77409;SDS011;66481;51.332;22.804;2023-02-18T08:35:41;4.72;;;2.25;;
77409;SDS011;66481;51.332;22.804;2023-02-18T08:39:44;4.38;;;1.70;;
77409;SDS011;66481;51.332;22.804;2023-02-18T08:43:48;4.13;;;2.25;;
77409;SDS011;66481;51.332;22.804;2023-02-18T08:47:49;6.75;;;1.98;;
77409;SDS011;66481;51.332;22.804;2023-02-18T08:51:50;4.70;;;1.83;;
77409;SDS011;66481;51.332;22.804;2023-02-18T08:55:52;4.95;;;2.17;;
77409;SDS011;66481;51.332;22.804;2023-02-18T08:59:53;8.90;;;2.78;;
77409;SDS011;66481;51.332;22.804;2023-02-18T09:03:54;6.50;;;3.38;;
77409;SDS011;66481;51.332;22.804;2023-02-18T09:07:56;4.97;;;2.03;;
77409;SDS011;66481;51.332;22.804;2023-02-18T09:11:57;5.40;;;2.15;;
77409;SDS011;66481;51.332;22.804;2023-02-18T09:15:59;4.07;;;2.15;;
77409;SDS011;66481;51.332;22.804;2023-02-18T09:20:03;4.13;;;1.73;;
77409;SDS011;66481;51.332;22.804;2023-02-18T09:24:06;6.63;;;2.00;;
77409;SDS011;66481;51.332;22.804;2023-02-18T09:28:07;6.93;;;2.35;;
77409;SDS011;66481;51.332;22.804;2023-02-18T09:32:08;8.15;;;2.10;;
77409;SDS011;66481;51.332;22.804;2023-02-18T09:36:11;4.20;;;1.65;;
77409;SDS011;66481;51.332;22.804;2023-02-18T09:40:26;4.85;;;2.22;;
77409;SDS011;66481;51.332;22.804;2023-02-18T09:44:31;6.07;;;1.98;;
77409;SDS011;66481;51.332;22.804;2023-02-18T09:48:36;2.63;;;2.03;;
77409;SDS011;66481;51.332;22.804;2023-02-18T09:52:38;5.88;;;2.40;;
77409;SDS011;66481;51.332;22.804;2023-02-18T09:56:39;9.13;;;2.10;;
77409;SDS011;66481;51.332;22.804;2023-02-18T10:00:45;6.32;;;2.55;;
77409;SDS011;66481;51.332;22.804;2023-02-18T10:04:50;8.75;;;2.70;;
77409;SDS011;66481;51.332;22.804;2023-02-18T10:08:53;5.55;;;2.28;;
77409;SDS011;66481;51.332;22.804;2023-02-18T10:12:55;7.20;;;2.75;;
77409;SDS011;66481;51.332;22.804;2023-02-18T10:16:58;4.75;;;2.33;;
77409;SDS011;66481;51.332;22.804;2023-02-18T10:21:03;5.75;;;2.30;;
77409;SDS011;66481;51.332;22.804;2023-02-18T10:25:18;5.68;;;2.28;;
77409;SDS011;66481;51.332;22.804;2023-02-18T10:29:21;5.55;;;2.83;;
77409;SDS011;66481;51.332;22.804;2023-02-18T10:46:36;6.75;;;2.17;;
77409;SDS011;66481;51.332;22.804;2023-02-18T10:50:57;3.10;;;1.67;;
77409;SDS011;66481;51.332;22.804;2023-02-18T10:55:11;8.43;;;2.30;;
77409;SDS011;66481;51.332;22.804;2023-02-18T11:03:37;5.53;;;2.13;;
77409;SDS011;66481;51.332;22.804;2023-02-18T11:07:44;6.70;;;2.15;;
77409;SDS011;66481;51.332;22.804;2023-02-18T11:11:49;5.90;;;2.00;;
77409;SDS011;66481;51.332;22.804;2023-02-18T11:20:02;3.40;;;1.85;;
77409;SDS011;66481;51.332;22.804;2023-02-18T11:24:20;4.82;;;2.35;;
77409;SDS011;66481;51.332;22.804;2023-02-18T11:32:28;5.03;;;1.80;;
77409;SDS011;66481;51.332;22.804;2023-02-18T11:36:34;4.90;;;2.95;;
77409;SDS011;66481;51.332;22.804;2023-02-18T11:40:36;6.13;;;2.00;;
77409;SDS011;66481;51.332;22.804;2023-02-18T11:44:47;5.55;;;2.13;;
77409;SDS011;66481;51.332;22.804;2023-02-18T11:48:53;7.57;;;2.25;;
77409;SDS011;66481;51.332;22.804;2023-02-18T11:52:55;8.73;;;2.42;;
77409;SDS011;66481;51.332;22.804;2023-02-18T11:57:02;3.72;;;2.55;;
77409;SDS011;66481;51.332;22.804;2023-02-18T12:01:07;6.47;;;2.38;;
77409;SDS011;66481;51.332;22.804;2023-02-18T12:05:23;6.20;;;2.35;;
77409;SDS011;66481;51.332;22.804;2023-02-18T12:09:37;9.10;;;2.40;;
77409;SDS011;66481;51.332;22.804;2023-02-18T12:13:54;4.95;;;2.40;;
77409;SDS011;66481;51.332;22.804;2023-02-18T12:26:36;7.60;;;3.17;;
77409;SDS011;66481;51.332;22.804;2023-02-18T12:48:19;6.63;;;2.33;;
77409;SDS011;66481;51.332;22.804;2023-02-18T12:52:33;6.78;;;2.47;;
77409;SDS011;66481;51.332;22.804;2023-02-18T13:18:28;9.23;;;3.40;;
77409;SDS011;66481;51.332;22.804;2023-02-18T13:22:35;5.47;;;2.58;;
77409;SDS011;66481;51.332;22.804;2023-02-18T13:26:37;5.05;;;2.42;;
77409;SDS011;66481;51.332;22.804;2023-02-18T13:30:44;4.90;;;2.50;;
77409;SDS011;66481;51.332;22.804;2023-02-18T13:34:58;4.80;;;3.08;;
77409;SDS011;66481;51.332;22.804;2023-02-18T13:39:08;6.70;;;2.50;;
77409;SDS011;66481;51.332;22.804;2023-02-18T13:51:45;9.63;;;2.58;;
77409;SDS011;66481;51.332;22.804;2023-02-18T13:56:49;4.55;;;2.40;;
77409;SDS011;66481;51.332;22.804;2023-02-18T14:00:33;7.50;;;2.38;;
77409;SDS011;66481;51.332;22.804;2023-02-18T14:21:21;7.00;;;2.83;;
77409;SDS011;66481;51.332;22.804;2023-02-18T14:25:38;7.40;;;2.50;;
77409;SDS011;66481;51.332;22.804;2023-02-18T14:29:42;5.65;;;3.15;;
77409;SDS011;66481;51.332;22.804;2023-02-18T14:51:03;9.73;;;4.50;;
77409;SDS011;66481;51.332;22.804;2023-02-18T14:55:06;4.57;;;3.03;;
77409;SDS011;66481;51.332;22.804;2023-02-18T14:59:16;9.95;;;3.47;;
77409;SDS011;66481;51.332;22.804;2023-02-18T15:03:19;7.55;;;3.17;;
77409;SDS011;66481;51.332;22.804;2023-02-18T15:07:22;7.65;;;3.78;;
77409;SDS011;66481;51.332;22.804;2023-02-18T15:11:29;7.22;;;4.15;;
77409;SDS011;66481;51.332;22.804;2023-02-18T15:15:39;9.38;;;3.42;;
77409;SDS011;66481;51.332;22.804;2023-02-18T15:19:45;6.65;;;3.15;;
77409;SDS011;66481;51.332;22.804;2023-02-18T15:23:53;8.68;;;2.95;;
77409;SDS011;66481;51.332;22.804;2023-02-18T15:27:54;6.78;;;3.08;;
77409;SDS011;66481;51.332;22.804;2023-02-18T15:31:56;7.40;;;3.28;;
77409;SDS011;66481;51.332;22.804;2023-02-18T15:36:05;10.63;;;2.95;;
77409;SDS011;66481;51.332;22.804;2023-02-18T15:40:15;7.78;;;3.40;;
77409;SDS011;66481;51.332;22.804;2023-02-18T15:44:18;6.13;;;3.00;;
77409;SDS011;66481;51.332;22.804;2023-02-18T15:48:36;9.70;;;4.13;;
77409;SDS011;66481;51.332;22.804;2023-02-18T15:52:51;11.27;;;3.70;;
77409;SDS011;66481;51.332;22.804;2023-02-18T15:56:54;17.55;;;4.03;;
77409;SDS011;66481;51.332;22.804;2023-02-18T16:01:02;7.57;;;3.83;;
77409;SDS011;66481;51.332;22.804;2023-02-18T16:05:11;7.68;;;3.35;;
77409;SDS011;66481;51.332;22.804;2023-02-18T16:13:18;4.38;;;2.55;;
77409;SDS011;66481;51.332;22.804;2023-02-18T16:17:27;9.18;;;3.42;;
77409;SDS011;66481;51.332;22.804;2023-02-18T16:21:36;10.00;;;3.55;;
77409;SDS011;66481;51.332;22.804;2023-02-18T16:26:07;12.05;;;4.35;;
77409;SDS011;66481;51.332;22.804;2023-02-18T16:30:22;9.40;;;4.40;;
77409;SDS011;66481;51.332;22.804;2023-02-18T16:34:26;6.38;;;3.35;;
77409;SDS011;66481;51.332;22.804;2023-02-18T16:38:28;6.15;;;2.72;;
77409;SDS011;66481;51.332;22.804;2023-02-18T16:42:30;4.75;;;2.67;;
77409;SDS011;66481;51.332;22.804;2023-02-18T16:46:33;8.50;;;2.35;;
77409;SDS011;66481;51.332;22.804;2023-02-18T16:50:38;9.95;;;3.65;;
77409;SDS011;66481;51.332;22.804;2023-02-18T16:54:40;7.10;;;3.20;;
77409;SDS011;66481;51.332;22.804;2023-02-18T16:58:46;4.93;;;2.35;;
77409;SDS011;66481;51.332;22.804;2023-02-18T17:02:53;3.80;;;1.73;;
77409;SDS011;66481;51.332;22.804;2023-02-18T17:06:58;2.60;;;1.80;;
77409;SDS011;66481;51.332;22.804;2023-02-18T17:11:00;3.83;;;2.08;;
77409;SDS011;66481;51.332;22.804;2023-02-18T17:19:38;6.68;;;2.22;;
77409;SDS011;66481;51.332;22.804;2023-02-18T17:23:41;7.93;;;3.88;;
77409;SDS011;66481;51.332;22.804;2023-02-18T17:27:44;3.92;;;2.38;;
77409;SDS011;66481;51.332;22.804;2023-02-18T17:31:46;6.50;;;3.03;;
77409;SDS011;66481;51.332;22.804;2023-02-18T17:35:52;7.70;;;3.50;;
77409;SDS011;66481;51.332;22.804;2023-02-18T17:39:54;6.32;;;3.53;;
77409;SDS011;66481;51.332;22.804;2023-02-18T17:43:56;6.18;;;3.80;;
77409;SDS011;66481;51.332;22.804;2023-02-18T17:47:58;16.45;;;5.95;;
77409;SDS011;66481;51.332;22.804;2023-02-18T17:52:01;16.10;;;9.00;;
77409;SDS011;66481;51.332;22.804;2023-02-18T17:56:03;11.38;;;5.03;;
77409;SDS011;66481;51.332;22.804;2023-02-18T18:00:05;8.88;;;5.25;;
77409;SDS011;66481;51.332;22.804;2023-02-18T18:04:12;9.50;;;3.97;;
77409;SDS011;66481;51.332;22.804;2023-02-18T18:08:18;13.50;;;5.30;;
77409;SDS011;66481;51.332;22.804;2023-02-18T18:12:26;10.80;;;4.18;;
77409;SDS011;66481;51.332;22.804;2023-02-18T18:16:32;9.18;;;3.78;;
77409;SDS011;66481;51.332;22.804;2023-02-18T18:20:34;9.88;;;3.25;;
77409;SDS011;66481;51.332;22.804;2023-02-18T18:24:37;8.13;;;4.35;;
77409;SDS011;66481;51.332;22.804;2023-02-18T18:28:41;12.07;;;4.80;;
77409;SDS011;66481;51.332;22.804;2023-02-18T18:32:44;12.27;;;5.32;;
77409;SDS011;66481;51.332;22.804;2023-02-18T18:36:47;11.75;;;4.47;;
77409;SDS011;66481;51.332;22.804;2023-02-18T18:40:50;7.55;;;4.38;;
77409;SDS011;66481;51.332;22.804;2023-02-18T18:44:57;7.85;;;4.28;;
77409;SDS011;66481;51.332;22.804;2023-02-18T18:49:05;11.02;;;4.80;;
77409;SDS011;66481;51.332;22.804;2023-02-18T18:53:17;11.60;;;4.57;;
77409;SDS011;66481;51.332;22.804;2023-02-18T18:57:21;10.43;;;4.32;;
77409;SDS011;66481;51.332;22.804;2023-02-18T19:01:23;13.57;;;5.38;;
77409;SDS011;66481;51.332;22.804;2023-02-18T19:05:32;11.23;;;5.43;;
77409;SDS011;66481;51.332;22.804;2023-02-18T19:09:47;7.63;;;4.72;;
77409;SDS011;66481;51.332;22.804;2023-02-18T19:13:49;12.40;;;4.65;;
77409;SDS011;66481;51.332;22.804;2023-02-18T19:17:52;8.30;;;4.88;;
77409;SDS011;66481;51.332;22.804;2023-02-18T19:21:55;8.95;;;4.30;;
77409;SDS011;66481;51.332;22.804;2023-02-18T19:25:57;8.93;;;4.90;;
77409;SDS011;66481;51.332;22.804;2023-02-18T19:29:59;9.98;;;5.00;;
77409;SDS011;66481;51.332;22.804;2023-02-18T19:34:01;9.13;;;4.65;;
77409;SDS011;66481;51.332;22.804;2023-02-18T19:38:02;6.97;;;4.43;;
77409;SDS011;66481;51.332;22.804;2023-02-18T19:42:07;9.20;;;5.28;;
77409;SDS011;66481;51.332;22.804;2023-02-18T19:46:10;8.88;;;5.38;;
77409;SDS011;66481;51.332;22.804;2023-02-18T19:50:15;14.82;;;6.55;;
77409;SDS011;66481;51.332;22.804;2023-02-18T19:54:17;11.60;;;6.45;;
77409;SDS011;66481;51.332;22.804;2023-02-18T19:58:20;11.30;;;6.45;;
77409;SDS011;66481;51.332;22.804;2023-02-18T20:02:23;9.15;;;5.43;;
77409;SDS011;66481;51.332;22.804;2023-02-18T20:06:27;10.35;;;5.68;;
77409;SDS011;66481;51.332;22.804;2023-02-18T20:10:30;11.88;;;6.10;;
77409;SDS011;66481;51.332;22.804;2023-02-18T20:14:35;14.57;;;7.05;;
77409;SDS011;66481;51.332;22.804;2023-02-18T20:18:38;15.18;;;7.97;;
77409;SDS011;66481;51.332;22.804;2023-02-18T20:22:41;15.45;;;8.88;;
77409;SDS011;66481;51.332;22.804;2023-02-18T20:26:43;14.20;;;8.52;;
77409;SDS011;66481;51.332;22.804;2023-02-18T20:31:01;15.30;;;9.10;;
77409;SDS011;66481;51.332;22.804;2023-02-18T20:35:11;17.02;;;10.38;;
77409;SDS011;66481;51.332;22.804;2023-02-18T20:39:17;16.92;;;8.82;;
77409;SDS011;66481;51.332;22.804;2023-02-18T20:43:20;16.00;;;9.13;;
77409;SDS011;66481;51.332;22.804;2023-02-18T20:47:27;19.58;;;9.75;;
77409;SDS011;66481;51.332;22.804;2023-02-18T20:51:30;21.70;;;10.07;;
77409;SDS011;66481;51.332;22.804;2023-02-18T20:55:36;20.05;;;10.02;;
77409;SDS011;66481;51.332;22.804;2023-02-18T20:59:38;19.67;;;10.70;;
77409;SDS011;66481;51.332;22.804;2023-02-18T21:03:43;18.67;;;9.75;;
77409;SDS011;66481;51.332;22.804;2023-02-18T21:07:47;16.13;;;9.70;;
77409;SDS011;66481;51.332;22.804;2023-02-18T21:11:50;18.30;;;8.60;;
77409;SDS011;66481;51.332;22.804;2023-02-18T21:15:52;18.80;;;9.38;;
77409;SDS011;66481;51.332;22.804;2023-02-18T21:20:03;17.45;;;9.45;;
77409;SDS011;66481;51.332;22.804;2023-02-18T21:24:05;18.05;;;9.25;;
77409;SDS011;66481;51.332;22.804;2023-02-18T21:28:06;21.80;;;10.57;;
77409;SDS011;66481;51.332;22.804;2023-02-18T21:32:08;18.05;;;9.40;;
77409;SDS011;66481;51.332;22.804;2023-02-18T21:36:09;30.85;;;15.35;;
77409;SDS011;66481;51.332;22.804;2023-02-18T21:40:11;19.08;;;10.38;;
77409;SDS011;66481;51.332;22.804;2023-02-18T21:44:12;17.33;;;9.15;;
77409;SDS011;66481;51.332;22.804;2023-02-18T21:48:13;17.17;;;9.45;;
77409;SDS011;66481;51.332;22.804;2023-02-18T21:52:34;14.10;;;8.52;;
77409;SDS011;66481;51.332;22.804;2023-02-18T21:56:40;14.45;;;8.25;;
77409;SDS011;66481;51.332;22.804;2023-02-18T22:00:54;10.88;;;6.57;;
77409;SDS011;66481;51.332;22.804;2023-02-18T22:05:05;11.63;;;6.60;;
77409;SDS011;66481;51.332;22.804;2023-02-18T22:09:12;13.38;;;7.05;;
77409;SDS011;66481;51.332;22.804;2023-02-18T22:13:28;12.00;;;7.65;;
77409;SDS011;66481;51.332;22.804;2023-02-18T22:17:31;10.32;;;7.15;;
77409;SDS011;66481;51.332;22.804;2023-02-18T22:21:33;10.18;;;5.97;;
77409;SDS011;66481;51.332;22.804;2023-02-18T22:25:34;9.82;;;5.72;;
77409;SDS011;66481;51.332;22.804;2023-02-18T22:29:36;9.98;;;5.68;;
77409;SDS011;66481;51.332;22.804;2023-02-18T22:33:38;8.50;;;5.47;;
77409;SDS011;66481;51.332;22.804;2023-02-18T22:37:41;9.32;;;6.05;;
77409;SDS011;66481;51.332;22.804;2023-02-18T22:41:42;13.43;;;7.35;;
77409;SDS011;66481;51.332;22.804;2023-02-18T22:45:43;10.85;;;6.85;;
77409;SDS011;66481;51.332;22.804;2023-02-18T22:49:44;11.07;;;6.65;;
77409;SDS011;66481;51.332;22.804;2023-02-18T22:53:46;10.65;;;6.97;;
77409;SDS011;66481;51.332;22.804;2023-02-18T22:57:50;10.98;;;6.47;;
77409;SDS011;66481;51.332;22.804;2023-02-18T23:01:59;11.70;;;6.55;;
77409;SDS011;66481;51.332;22.804;2023-02-18T23:06:02;10.63;;;8.15;;
77409;SDS011;66481;51.332;22.804;2023-02-18T23:10:05;8.40;;;4.78;;
77409;SDS011;66481;51.332;22.804;2023-02-18T23:14:07;12.30;;;7.07;;
77409;SDS011;66481;51.332;22.804;2023-02-18T23:18:18;10.70;;;6.78;;
77409;SDS011;66481;51.332;22.804;2023-02-18T23:31:34;10.85;;;6.32;;
77409;SDS011;66481;51.332;22.804;2023-02-18T23:35:39;9.63;;;6.40;;
77409;SDS011;66481;51.332;22.804;2023-02-18T23:39:40;8.60;;;6.07;;
77409;SDS011;66481;51.332;22.804;2023-02-18T23:43:41;13.07;;;7.22;;
77409;SDS011;66481;51.332;22.804;2023-02-18T23:47:41;10.55;;;6.22;;
77409;SDS011;66481;51.332;22.804;2023-02-18T23:51:42;10.35;;;5.55;;
77409;SDS011;66481;51.332;22.804;2023-02-18T23:55:44;9.80;;;5.40;;
77409;SDS011;66481;51.332;22.804;2023-02-18T23:59:45;9.05;;;5.53;;
